Lampang Airport


Codes: VTCL/LPT
Name: Lampang Airport
City:
Country: Thailand
Elevation: 811 ft.
Wikipedia:

Photos at Lampang Airport


   Photos courtesy of SpottingLog. You can add your own sightings and photos by signing up for a free trial today.



No photos found.

Weather at Lampang Airport


Time (UTC)DescriptionTempratureWindCloud coverageVisibilityPressureHumidity
13-Jun-2024 03:00Broken Clouds28°C2 mph, SW75%10000m1009hPa74%
13-Jun-2024 06:00Light Rain28°C4 mph, S83%10000m1009hPa77%
13-Jun-2024 09:00Light Rain29°C7 mph, SW80%10000m1007hPa73%
13-Jun-2024 12:00Light Rain26°C2 mph, S88%10000m1006hPa90%
13-Jun-2024 15:00Overcast Clouds25°C2 mph, SE94%10000m1008hPa94%
13-Jun-2024 18:00Overcast Clouds24°C2 mph, S97%10000m1006hPa94%
13-Jun-2024 21:00Overcast Clouds24°C2 mph, S100%10000m1005hPa96%
14-Jun-2024 00:00Overcast Clouds24°C2 mph, S100%10000m1007hPa94%
14-Jun-2024 03:00Overcast Clouds25°C2 mph, S100%10000m1008hPa91%
14-Jun-2024 06:00Overcast Clouds28°C2 mph, S100%10000m1006hPa75%
14-Jun-2024 09:00Overcast Clouds29°C2 mph, S98%10000m1004hPa72%
14-Jun-2024 12:00Overcast Clouds26°C2 mph, SE87%10000m1005hPa86%
14-Jun-2024 15:00Broken Clouds25°C2 mph, SE79%10000m1007hPa89%
14-Jun-2024 18:00Overcast Clouds25°C2 mph, SE90%10000m1006hPa90%
14-Jun-2024 21:00Light Rain24°C2 mph, S100%10000m1004hPa92%
15-Jun-2024 00:00Overcast Clouds25°C2 mph, S100%10000m1006hPa91%
15-Jun-2024 03:00Light Rain28°C2 mph, SW100%10000m1006hPa80%
15-Jun-2024 06:00Light Rain30°C7 mph, SW100%8388m1004hPa72%
15-Jun-2024 09:00Light Rain30°C7 mph, SW100%10000m1002hPa72%
15-Jun-2024 12:00Light Rain26°C4 mph, S100%10000m1004hPa85%
15-Jun-2024 15:00Light Rain25°C2 mph, S100%10000m1006hPa88%
15-Jun-2024 18:00Overcast Clouds24°C2 mph, S100%10000m1006hPa90%
15-Jun-2024 21:00Overcast Clouds25°C2 mph, S100%10000m1006hPa89%
16-Jun-2024 00:00Overcast Clouds25°C2 mph, SW99%10000m1007hPa89%
16-Jun-2024 03:00Overcast Clouds30°C7 mph, SW94%10000m1008hPa65%
16-Jun-2024 06:00Light Rain31°C9 mph, SW97%10000m1006hPa62%
16-Jun-2024 09:00Light Rain30°C7 mph, SW99%10000m1004hPa67%
16-Jun-2024 12:00Light Rain27°C4 mph, S99%10000m1005hPa79%
16-Jun-2024 15:00Overcast Clouds26°C2 mph, SW100%10000m1007hPa82%
16-Jun-2024 18:00Overcast Clouds25°C2 mph, SW100%10000m1007hPa87%
16-Jun-2024 21:00Overcast Clouds24°C2 mph, SW100%10000m1006hPa90%
17-Jun-2024 00:00Overcast Clouds25°C2 mph, W100%10000m1008hPa87%
17-Jun-2024 03:00Overcast Clouds30°C4 mph, SW100%10000m1009hPa65%
17-Jun-2024 06:00Overcast Clouds33°C7 mph, SW98%10000m1006hPa53%
17-Jun-2024 09:00Broken Clouds33°C9 mph, SW80%10000m1003hPa57%
17-Jun-2024 12:00Light Rain28°C2 mph, S90%10000m1004hPa76%
17-Jun-2024 15:00Light Rain26°C2 mph, SW100%10000m1006hPa80%
17-Jun-2024 18:00Overcast Clouds25°C4 mph, SW100%10000m1006hPa85%
17-Jun-2024 21:00Overcast Clouds26°C4 mph, SW100%10000m1005hPa83%
18-Jun-2024 00:00Light Rain26°C4 mph, SW98%10000m1006hPa86%